createdAt,value
2022-12-27T00:00:32.225Z,2
2022-12-27T00:05:26.850Z,1
2022-12-27T00:10:26.855Z,2
2022-12-27T00:15:26.862Z,1
2022-12-27T00:22:17.078Z,1
2022-12-27T00:25:26.875Z,2
2022-12-27T00:30:27.417Z,1
2022-12-27T00:35:27.414Z,2
2022-12-27T00:40:27.449Z,2
2022-12-27T00:45:26.976Z,2
2022-12-27T00:50:27.445Z,1
2022-12-27T00:55:26.933Z,2
2022-12-27T01:00:27.487Z,2
2022-12-27T01:05:27.610Z,2
2022-12-27T01:10:26.954Z,1
2022-12-27T01:15:27.031Z,2
2022-12-27T01:20:27.587Z,1
2022-12-27T01:25:27.005Z,1
2022-12-27T01:30:27.503Z,1
2022-12-27T01:35:27.516Z,1
2022-12-27T01:40:27.083Z,1
2022-12-27T01:45:27.130Z,1
2022-12-27T01:50:27.040Z,1
2022-12-27T01:55:27.034Z,1
2022-12-27T02:00:27.091Z,1
2022-12-27T02:05:27.565Z,1
2022-12-27T02:10:27.199Z,1
2022-12-27T02:15:27.586Z,1
2022-12-27T02:20:27.124Z,1
2022-12-27T02:25:27.107Z,1
2022-12-27T02:30:27.137Z,1
2022-12-27T02:35:27.629Z,1
2022-12-27T02:40:27.153Z,1
2022-12-27T02:45:27.131Z,1
2022-12-27T02:50:27.158Z,1
2022-12-27T02:55:27.655Z,1
2022-12-27T03:00:27.206Z,1
2022-12-27T03:05:27.189Z,1
2022-12-27T03:10:27.181Z,1
2022-12-27T03:15:31.836Z,1
2022-12-27T03:20:27.215Z,2
2022-12-27T03:25:27.199Z,1
2022-12-27T03:30:27.721Z,1
2022-12-27T03:35:27.217Z,1
2022-12-27T03:40:27.840Z,1
2022-12-27T03:45:27.747Z,1
2022-12-27T03:50:27.277Z,1
2022-12-27T03:55:33.100Z,1
2022-12-27T04:00:28.998Z,1
2022-12-27T04:05:27.282Z,1
2022-12-27T04:10:27.804Z,1
2022-12-27T04:15:27.819Z,1
2022-12-27T04:20:27.838Z,1
2022-12-27T04:25:27.309Z,1
2022-12-27T04:30:27.319Z,1
2022-12-27T04:35:27.329Z,1
2022-12-27T04:40:27.580Z,1
2022-12-27T04:45:27.338Z,1
2022-12-27T04:50:27.360Z,1
2022-12-27T04:55:27.372Z,1
2022-12-27T05:00:27.415Z,2
2022-12-27T05:05:27.381Z,2
2022-12-27T05:10:27.901Z,1
2022-12-27T05:15:27.931Z,2
2022-12-27T05:20:27.484Z,1
2022-12-27T05:25:27.418Z,1
2022-12-27T05:30:27.426Z,1
2022-12-27T05:35:27.437Z,1
2022-12-27T05:40:27.463Z,1
2022-12-27T05:45:27.448Z,2
2022-12-27T05:50:27.478Z,1
2022-12-27T05:55:41.864Z,2
2022-12-27T06:00:27.504Z,2
2022-12-27T06:05:27.487Z,2
2022-12-27T06:10:27.517Z,2
2022-12-27T06:16:12.066Z,1
2022-12-27T06:20:27.510Z,1
2022-12-27T06:25:27.537Z,1
2022-12-27T06:30:30.399Z,1
2022-12-27T06:35:32.359Z,2
2022-12-27T06:40:27.559Z,1
2022-12-27T06:45:27.642Z,1
2022-12-27T06:50:27.585Z,2
2022-12-27T06:56:01.258Z,2
2022-12-27T07:00:27.593Z,2
2022-12-27T07:05:27.605Z,2
2022-12-27T07:10:27.614Z,2
2022-12-27T07:15:34.344Z,2
2022-12-27T07:20:27.768Z,2
2022-12-27T07:25:27.631Z,2
2022-12-27T07:30:27.644Z,2
2022-12-27T07:35:28.181Z,2
2022-12-27T07:40:27.681Z,2
2022-12-27T07:45:27.757Z,2
2022-12-27T07:50:28.259Z,2
2022-12-27T07:55:28.225Z,4
2022-12-27T08:00:27.793Z,7
2022-12-27T08:05:28.158Z,6
2022-12-27T08:10:28.745Z,8
2022-12-27T08:15:28.378Z,4
2022-12-27T08:20:28.264Z,2
2022-12-27T08:25:27.748Z,1
2022-12-27T08:30:27.853Z,3
2022-12-27T08:35:52.555Z,4
2022-12-27T08:40:27.774Z,3
2022-12-27T08:45:28.295Z,3
2022-12-27T08:50:27.785Z,3
2022-12-27T08:55:27.823Z,3
2022-12-27T09:00:27.802Z,4
2022-12-27T09:05:27.941Z,4
2022-12-27T09:10:27.820Z,3
2022-12-27T09:15:27.876Z,4
2022-12-27T09:20:28.354Z,3
2022-12-27T09:25:27.879Z,3
2022-12-27T09:30:27.856Z,3
2022-12-27T09:35:27.886Z,4
2022-12-27T09:40:27.872Z,3
2022-12-27T09:45:28.419Z,3
2022-12-27T09:50:27.907Z,3
2022-12-27T09:55:28.746Z,3
2022-12-27T10:00:34.947Z,4
2022-12-27T10:05:27.970Z,3
2022-12-27T10:10:27.927Z,3
2022-12-27T10:15:27.965Z,2
2022-12-27T10:20:27.965Z,3
2022-12-27T10:25:27.952Z,3
2022-12-27T10:30:27.967Z,3
2022-12-27T10:35:28.005Z,2
2022-12-27T10:40:32.536Z,3
2022-12-27T10:45:27.995Z,4
2022-12-27T10:50:27.992Z,2
2022-12-27T10:55:28.029Z,3
2022-12-27T11:00:28.109Z,3
2022-12-27T11:05:28.021Z,4
2022-12-27T11:10:28.048Z,3
2022-12-27T11:15:28.123Z,3
2022-12-27T11:20:28.075Z,3
2022-12-27T11:25:28.580Z,3
2022-12-27T11:30:28.200Z,2
2022-12-27T11:35:28.107Z,2
2022-12-27T11:40:28.089Z,2
2022-12-27T11:45:28.187Z,2
2022-12-27T11:50:28.118Z,2
2022-12-27T11:55:28.148Z,2
2022-12-27T12:00:28.130Z,2
2022-12-27T12:05:43.350Z,3
2022-12-27T12:10:28.649Z,2
2022-12-27T12:15:28.788Z,3
2022-12-27T12:20:28.330Z,2
2022-12-27T12:25:28.675Z,3
2022-12-27T12:30:28.695Z,2
2022-12-27T12:35:28.221Z,2
2022-12-27T12:40:28.191Z,3
2022-12-27T12:45:28.236Z,3
2022-12-27T12:50:34.183Z,4
2022-12-27T12:55:30.978Z,3
2022-12-27T13:00:44.238Z,3
2022-12-27T13:05:28.256Z,2
2022-12-27T13:10:28.276Z,3
2022-12-27T13:15:28.812Z,2
2022-12-27T13:20:28.268Z,2
2022-12-27T13:25:28.788Z,3
2022-12-27T13:30:28.839Z,3
2022-12-27T13:35:28.446Z,2
2022-12-27T13:40:28.304Z,3
2022-12-27T13:45:28.308Z,2
2022-12-27T13:50:29.007Z,18
2022-12-27T13:55:28.848Z,2
2022-12-27T14:00:28.401Z,3
2022-12-27T14:05:28.907Z,2
2022-12-27T14:10:28.890Z,4
2022-12-27T14:15:28.442Z,3
2022-12-27T14:20:28.379Z,2
2022-12-27T14:25:28.900Z,2
2022-12-27T14:30:28.924Z,2
2022-12-27T14:35:28.404Z,3
2022-12-27T14:40:32.860Z,3
2022-12-27T14:45:28.413Z,2
2022-12-27T14:50:34.385Z,3
2022-12-27T14:55:28.540Z,2
2022-12-27T15:00:28.961Z,2
2022-12-27T15:05:28.518Z,3
2022-12-27T15:10:33.512Z,3
2022-12-27T15:15:28.977Z,3
2022-12-27T15:20:28.492Z,3
2022-12-27T15:25:28.504Z,4
2022-12-27T15:30:35.058Z,3
2022-12-27T15:35:28.607Z,4
2022-12-27T15:40:28.665Z,3
2022-12-27T15:45:28.539Z,3
2022-12-27T15:50:43.566Z,3
2022-12-27T15:55:29.059Z,5
2022-12-27T16:00:32.582Z,3
2022-12-27T16:05:28.576Z,4
2022-12-27T16:10:34.533Z,3
2022-12-27T16:15:28.645Z,3
2022-12-27T16:20:28.594Z,3
2022-12-27T16:25:30.863Z,3
2022-12-27T16:30:28.636Z,4
2022-12-27T16:35:28.723Z,3
2022-12-27T16:40:28.630Z,3
2022-12-27T16:45:29.140Z,5
2022-12-27T16:50:28.695Z,4
2022-12-27T16:55:28.648Z,4
2022-12-27T17:00:34.051Z,4
2022-12-27T17:05:29.196Z,5
2022-12-27T17:10:29.220Z,5
2022-12-27T17:15:29.202Z,4
2022-12-27T17:20:28.702Z,4
2022-12-27T17:25:28.729Z,6
2022-12-27T17:30:29.386Z,5
2022-12-27T17:40:33.503Z,7
2022-12-27T17:45:28.774Z,5
2022-12-27T17:50:29.301Z,5
2022-12-27T17:55:29.278Z,6
2022-12-27T18:00:28.758Z,6
2022-12-27T18:05:28.796Z,6
2022-12-27T18:10:28.820Z,5
2022-12-27T18:15:35.103Z,5
2022-12-27T18:20:29.372Z,6
2022-12-27T18:25:28.818Z,5
2022-12-27T18:30:28.866Z,4
2022-12-27T18:35:46.850Z,5
2022-12-27T18:40:28.864Z,6
2022-12-27T18:45:29.436Z,6
2022-12-27T18:50:28.888Z,6
2022-12-27T18:55:46.869Z,7
2022-12-27T19:00:28.882Z,7
2022-12-27T19:05:29.992Z,6
2022-12-27T19:10:29.048Z,5
2022-12-27T19:15:29.821Z,4
2022-12-27T19:20:28.928Z,6
2022-12-27T19:25:28.926Z,7
2022-12-27T19:30:44.651Z,5
2022-12-27T19:35:29.442Z,5
2022-12-27T19:40:28.944Z,5
2022-12-27T19:45:29.484Z,5
2022-12-27T19:50:29.500Z,5
2022-12-27T19:55:35.530Z,6
2022-12-27T20:00:29.493Z,5
2022-12-27T20:06:11.003Z,7
2022-12-27T20:10:29.576Z,6
2022-12-27T20:15:29.519Z,5
2022-12-27T20:20:29.025Z,6
2022-12-27T20:25:29.211Z,5
2022-12-27T20:30:29.067Z,6
2022-12-27T20:37:08.049Z,5
2022-12-27T20:40:29.063Z,5
2022-12-27T20:45:29.605Z,5
2022-12-27T20:50:29.811Z,4
2022-12-27T20:55:43.459Z,5
2022-12-27T21:00:29.092Z,5
2022-12-27T21:05:29.235Z,5
2022-12-27T21:10:29.132Z,5
2022-12-27T21:15:31.187Z,4
2022-12-27T21:20:29.130Z,5
2022-12-27T21:25:29.141Z,4
2022-12-27T21:30:29.227Z,5
2022-12-27T21:35:29.671Z,4
2022-12-27T21:40:29.155Z,4
2022-12-27T21:45:29.693Z,5
2022-12-27T21:50:33.893Z,4
2022-12-27T21:55:29.869Z,5
2022-12-27T22:00:30.471Z,8
2022-12-27T22:05:29.230Z,9
2022-12-27T22:10:29.245Z,10
2022-12-27T22:15:29.806Z,9
2022-12-27T22:20:29.237Z,9
2022-12-27T22:25:29.292Z,9
2022-12-27T22:30:29.784Z,9
2022-12-27T22:35:29.259Z,9
2022-12-27T22:40:31.248Z,8
2022-12-27T22:45:29.334Z,7
2022-12-27T22:50:29.318Z,7
2022-12-27T22:55:29.296Z,7
2022-12-27T23:00:29.812Z,8
2022-12-27T23:05:29.827Z,8
2022-12-27T23:10:29.347Z,7
2022-12-27T23:15:34.673Z,7
2022-12-27T23:20:29.339Z,8
2022-12-27T23:25:29.368Z,7
2022-12-27T23:30:29.452Z,8
2022-12-27T23:35:29.373Z,9
2022-12-27T23:40:29.380Z,8
2022-12-27T23:45:29.400Z,8
2022-12-27T23:50:29.927Z,7
2022-12-27T23:55:29.429Z,8
